Arsenal, Arkansas
Current Conditions -  °F | °C
As of 1:53 PM on Thursday 18 Dec 2014 (Local Time) from KPBF Reporting Station
Overcast Overcast  
Wind Chill: 44°   Ceiling: 1000
Heat Index: 44°   Visibility: 10mi
Dew Point: 39°   Wind: 3mph
Humidity: 82%   Direction: 90°E
Pressure: 30.17"   Gusts: NA
Location:  34.193°N, 91.9403°W
Report Text: KPBF 181953Z AUTO 09003KT 10SM OVC010 07/04 A3017 RMK AO2 SLP215 T00670039
Loading
Personal Weather Stations






























Interactive Weather Map New forecast layout! Learn more

10-Day Weather Forecast

Advertisements
Track Severe Weather on mobile